Time;durP1;ratioP1;P1;durP2;ratioP2;P2;SDS_P1;SDS_P2;PMS_P1;PMS_P2;Temp;Humidity;BMP_temperature;BMP_pressure;BME280_temperature;BME280_humidity;BME280_pressure;Samples;Min_cycle;Max_cycle;Signal;HPM_P1;HPM_P2
2023/12/27 00:00:06;;;;;;;6.00;2.92;;;7.30;99.90;;;;;;5017868;28;20076;-51
2023/12/27 00:02:35;;;;;;;5.50;3.00;;;7.30;99.90;;;;;;5013836;28;20519;-52
2023/12/27 00:05:02;;;;;;;5.97;3.17;;;7.30;99.90;;;;;;5012220;28;20057;-53
2023/12/27 00:07:29;;;;;;;6.00;3.20;;;7.30;99.90;;;;;;5013198;28;20363;-52
2023/12/27 00:09:56;;;;;;;8.10;3.15;;;7.30;99.90;;;;;;5019634;28;20454;-52
2023/12/27 00:12:22;;;;;;;6.80;3.22;;;7.30;99.90;;;;;;5011541;28;20483;-51
2023/12/27 00:14:49;;;;;;;6.80;3.28;;;7.30;99.90;;;;;;5019336;28;20205;-51
2023/12/27 00:17:16;;;;;;;7.57;3.28;;;7.30;99.90;;;;;;5011403;28;20046;-51
2023/12/27 00:19:43;;;;;;;7.80;3.30;;;7.30;99.90;;;;;;5015568;28;20080;-51
2023/12/27 00:22:10;;;;;;;6.03;3.05;;;7.30;99.90;;;;;;5012025;28;20125;-52
2023/12/27 00:24:37;;;;;;;8.20;3.78;;;7.30;99.90;;;;;;5013716;28;20116;-52
2023/12/27 00:27:04;;;;;;;7.70;3.22;;;7.30;99.90;;;;;;5014708;28;20045;-52
2023/12/27 00:29:31;;;;;;;7.50;3.15;;;7.30;99.90;;;;;;5017770;28;20338;-50
2023/12/27 00:31:58;;;;;;;8.40;2.90;;;7.30;99.90;;;;;;5013022;28;20121;-48
2023/12/27 00:34:25;;;;;;;7.18;3.95;;;7.20;99.90;;;;;;5012220;28;20073;-48
2023/12/27 00:36:53;;;;;;;7.32;3.08;;;7.20;99.90;;;;;;5017335;28;20045;-52
2023/12/27 00:39:23;;;;;;;7.30;2.92;;;7.20;99.90;;;;;;5011108;28;20049;-52
2023/12/27 00:41:51;;;;;;;6.60;3.22;;;7.20;99.90;;;;;;5010877;28;20510;-48
2023/12/27 00:44:18;;;;;;;7.88;3.15;;;7.20;99.90;;;;;;5014637;28;20054;-50
2023/12/27 00:46:45;;;;;;;5.00;3.10;;;7.20;99.90;;;;;;5015608;28;20517;-50
2023/12/27 00:49:12;;;;;;;6.32;2.90;;;7.10;99.90;;;;;;5015524;28;20044;-50
2023/12/27 00:51:39;;;;;;;5.00;3.08;;;7.20;99.90;;;;;;5014256;28;20060;-55
2023/12/27 00:54:06;;;;;;;7.00;2.78;;;7.10;99.90;;;;;;5015975;28;20054;-50
2023/12/27 00:56:34;;;;;;;6.85;2.90;;;7.10;99.90;;;;;;5014879;28;20052;-52
2023/12/27 00:59:01;;;;;;;8.75;2.80;;;7.10;99.90;;;;;;5014222;28;20112;-50
2023/12/27 01:01:30;;;;;;;8.10;3.00;;;7.10;99.90;;;;;;5014859;28;20038;-52
2023/12/27 01:03:57;;;;;;;4.43;2.80;;;7.10;99.90;;;;;;5010549;28;20096;-52
2023/12/27 01:06:24;;;;;;;6.75;2.85;;;7.10;99.90;;;;;;5014757;28;20038;-48
2023/12/27 01:08:52;;;;;;;7.85;3.63;;;7.00;99.90;;;;;;5017019;28;20037;-51
2023/12/27 01:11:19;;;;;;;6.32;3.13;;;7.00;99.90;;;;;;5013368;28;20080;-50
2023/12/27 01:13:46;;;;;;;10.10;3.08;;;6.90;99.90;;;;;;5015396;28;20049;-48
2023/12/27 01:16:14;;;;;;;6.18;2.58;;;6.90;99.90;;;;;;5012238;28;20540;-50
2023/12/27 01:18:41;;;;;;;9.23;3.20;;;6.90;99.90;;;;;;5007989;28;20463;-54
2023/12/27 01:21:09;;;;;;;7.93;3.05;;;6.90;99.90;;;;;;5007028;28;20038;-52
2023/12/27 01:23:35;;;;;;;8.55;3.50;;;7.00;99.90;;;;;;5006986;28;20073;-52
2023/12/27 01:26:02;;;;;;;6.65;3.50;;;7.00;99.90;;;;;;5003084;28;20263;-51
2023/12/27 01:28:31;;;;;;;8.55;3.78;;;7.00;99.90;;;;;;5007000;28;20041;-48
2023/12/27 01:30:58;;;;;;;9.43;3.50;;;7.00;99.90;;;;;;5007394;28;20053;-52
2023/12/27 01:33:26;;;;;;;6.88;3.38;;;7.00;99.90;;;;;;5005973;28;20120;-52
2023/12/27 01:35:53;;;;;;;9.48;3.40;;;7.10;99.90;;;;;;5007247;28;20049;-51
2023/12/27 01:38:20;;;;;;;5.72;3.38;;;7.00;99.90;;;;;;5002249;28;20073;-49
2023/12/27 01:40:51;;;;;;;6.65;3.40;;;7.00;99.90;;;;;;5005481;28;20069;-47
2023/12/27 01:43:18;;;;;;;12.90;3.50;;;7.00;99.90;;;;;;5005146;28;20036;-52
2023/12/27 01:45:49;;;;;;;6.25;3.47;;;7.00;99.90;;;;;;5010301;28;20042;-54
2023/12/27 01:48:20;;;;;;;6.93;3.08;;;7.00;99.90;;;;;;5015561;28;20510;-49
2023/12/27 01:50:53;;;;;;;8.85;3.20;;;7.00;99.90;;;;;;5007754;28;20568;-49
2023/12/27 01:53:21;;;;;;;5.22;3.30;;;7.00;99.90;;;;;;5005820;28;20053;-52
2023/12/27 01:55:49;;;;;;;7.10;3.55;;;7.00;99.90;;;;;;5000797;28;20081;-49
2023/12/27 01:58:16;;;;;;;6.68;3.60;;;7.00;99.90;;;;;;5014087;28;20140;-55
2023/12/27 02:00:45;;;;;;;6.35;3.65;;;7.00;99.90;;;;;;5010349;28;20144;-50
2023/12/27 02:03:13;;;;;;;11.48;3.72;;;7.00;99.90;;;;;;5011890;28;20095;-50
2023/12/27 02:05:41;;;;;;;5.13;3.25;;;7.00;99.90;;;;;;5012940;28;20106;-46
2023/12/27 02:08:10;;;;;;;6.55;3.28;;;6.90;99.90;;;;;;5013533;28;20050;-50
2023/12/27 02:10:37;;;;;;;7.85;4.28;;;6.90;99.90;;;;;;5012293;28;20042;-48
2023/12/27 02:13:08;;;;;;;6.10;3.05;;;6.90;99.90;;;;;;5007498;28;20070;-48
2023/12/27 02:15:35;;;;;;;9.52;3.50;;;6.90;99.90;;;;;;5015972;28;20120;-49
2023/12/27 02:18:05;;;;;;;6.60;3.53;;;6.90;99.90;;;;;;5009768;28;20066;-54
2023/12/27 02:20:33;;;;;;;6.93;3.70;;;6.80;99.90;;;;;;5015123;28;20073;-44
2023/12/27 02:23:05;;;;;;;8.30;3.45;;;6.80;99.90;;;;;;5012144;28;20053;-53
2023/12/27 02:25:32;;;;;;;8.25;4.20;;;6.80;99.90;;;;;;5011420;28;20052;-49
2023/12/27 02:27:59;;;;;;;9.52;3.67;;;6.80;99.90;;;;;;5017374;28;20076;-49
2023/12/27 02:30:26;;;;;;;7.35;3.42;;;6.80;99.90;;;;;;5013219;28;20312;-50
2023/12/27 02:32:53;;;;;;;7.32;3.55;;;6.80;99.90;;;;;;5013088;28;20510;-49
2023/12/27 02:35:20;;;;;;;9.23;3.90;;;6.80;99.90;;;;;;5013037;28;20045;-49
2023/12/27 02:37:47;;;;;;;10.32;4.15;;;6.80;99.90;;;;;;5006181;28;20158;-47
2023/12/27 02:40:14;;;;;;;7.97;3.90;;;6.70;99.90;;;;;;5016498;28;20567;-47
2023/12/27 02:42:41;;;;;;;9.50;3.58;;;6.80;99.90;;;;;;5017269;28;20650;-50
2023/12/27 02:45:08;;;;;;;6.00;3.33;;;6.80;99.90;;;;;;5022889;28;20065;-50
2023/12/27 02:47:35;;;;;;;10.82;3.60;;;6.80;99.90;;;;;;5016390;28;20458;-46
2023/12/27 02:50:03;;;;;;;8.25;3.67;;;6.80;99.90;;;;;;5017969;28;20446;-50
2023/12/27 02:52:30;;;;;;;9.15;4.30;;;6.80;99.90;;;;;;5012732;28;20073;-54
2023/12/27 02:54:57;;;;;;;8.38;3.90;;;6.80;99.90;;;;;;5022017;28;20079;-49
2023/12/27 02:57:24;;;;;;;10.68;4.10;;;6.80;99.90;;;;;;5020042;28;20077;-46
2023/12/27 02:59:51;;;;;;;6.75;3.97;;;6.80;99.90;;;;;;5023797;28;20049;-49
2023/12/27 03:02:18;;;;;;;8.60;3.65;;;6.80;99.90;;;;;;5015355;28;20069;-47
2023/12/27 03:04:45;;;;;;;6.70;3.88;;;6.80;99.90;;;;;;5018411;28;20116;-45
2023/12/27 03:07:12;;;;;;;6.75;3.92;;;6.80;99.90;;;;;;5016578;28;20062;-45
2023/12/27 03:09:39;;;;;;;11.10;4.18;;;6.80;99.90;;;;;;5013795;28;20176;-47
2023/12/27 03:12:06;;;;;;;8.73;4.28;;;6.80;99.90;;;;;;5013175;28;20063;-45
2023/12/27 03:14:33;;;;;;;8.85;3.80;;;6.80;99.90;;;;;;5013271;28;20050;-48
2023/12/27 03:17:00;;;;;;;8.68;4.18;;;6.80;99.90;;;;;;5015610;28;20100;-47
2023/12/27 03:19:27;;;;;;;8.18;4.38;;;6.80;99.90;;;;;;5004043;28;20648;-49
2023/12/27 03:21:54;;;;;;;14.40;4.50;;;6.80;99.90;;;;;;5019187;28;20041;-46
2023/12/27 03:24:21;;;;;;;8.20;4.57;;;6.80;99.90;;;;;;5018481;28;20115;-49
2023/12/27 03:26:48;;;;;;;7.43;3.90;;;6.70;99.90;;;;;;5017751;28;20052;-46
2023/12/27 03:29:15;;;;;;;11.30;4.82;;;6.70;99.90;;;;;;5010438;28;20073;-48
2023/12/27 03:31:42;;;;;;;8.43;4.35;;;6.60;99.90;;;;;;5014601;28;20507;-49
2023/12/27 03:34:09;;;;;;;10.02;5.28;;;6.70;99.90;;;;;;5015674;28;20107;-51
2023/12/27 03:36:36;;;;;;;6.82;4.22;;;6.70;99.90;;;;;;5011408;28;20116;-46
2023/12/27 03:39:03;;;;;;;10.82;4.63;;;6.60;99.90;;;;;;5015125;28;20180;-49
2023/12/27 03:41:30;;;;;;;11.43;4.50;;;6.70;99.90;;;;;;5014642;28;20510;-45
2023/12/27 03:43:59;;;;;;;7.38;4.40;;;6.70;99.90;;;;;;5016764;28;20501;-49
2023/12/27 03:46:26;;;;;;;7.65;4.53;;;6.70;99.90;;;;;;5010666;28;20066;-52
2023/12/27 03:48:53;;;;;;;7.57;4.68;;;6.60;99.90;;;;;;5018061;28;20096;-47
2023/12/27 03:51:22;;;;;;;8.52;4.43;;;6.60;99.90;;;;;;5010469;28;20054;-51
2023/12/27 03:53:49;;;;;;;8.45;4.50;;;6.60;99.90;;;;;;5019933;28;20425;-52
2023/12/27 03:56:16;;;;;;;11.73;5.00;;;6.60;99.90;;;;;;5012926;28;20056;-45
2023/12/27 03:58:43;;;;;;;9.68;4.45;;;6.60;99.90;;;;;;5019070;28;20128;-53
2023/12/27 04:01:11;;;;;;;11.43;4.78;;;6.60;99.90;;;;;;5017267;28;20052;-48
2023/12/27 04:03:40;;;;;;;9.70;4.55;;;6.60;99.90;;;;;;5015136;28;20030;-50
2023/12/27 04:06:07;;;;;;;10.70;4.60;;;6.60;99.90;;;;;;5009078;28;20050;-50
2023/12/27 04:08:34;;;;;;;8.55;4.95;;;6.60;99.90;;;;;;5015717;28;20206;-50
2023/12/27 04:11:01;;;;;;;10.80;4.60;;;6.60;99.90;;;;;;5005109;28;20038;-52
2023/12/27 04:13:28;;;;;;;8.07;4.55;;;6.60;99.90;;;;;;5008979;28;20559;-46
2023/12/27 04:15:55;;;;;;;9.25;4.30;;;6.60;99.90;;;;;;5017788;28;20215;-51
2023/12/27 04:18:22;;;;;;;9.95;4.80;;;6.60;99.90;;;;;;5009469;28;20547;-46
2023/12/27 04:20:49;;;;;;;9.05;4.20;;;6.60;99.90;;;;;;5018574;28;20049;-46
2023/12/27 04:23:16;;;;;;;7.53;4.35;;;6.50;99.90;;;;;;5010242;28;20045;-48
2023/12/27 04:25:44;;;;;;;11.95;5.28;;;6.60;99.90;;;;;;5016727;28;20056;-47
2023/12/27 04:28:11;;;;;;;9.57;4.88;;;6.50;99.90;;;;;;5012369;28;20046;-50
2023/12/27 04:30:38;;;;;;;7.80;4.80;;;6.50;99.90;;;;;;5013350;28;20041;-53
2023/12/27 04:33:06;;;;;;;10.48;5.28;;;6.60;99.90;;;;;;5014778;28;20049;-47
2023/12/27 04:35:33;;;;;;;8.45;4.90;;;6.50;99.90;;;;;;5018456;28;20048;-51
2023/12/27 04:38:00;;;;;;;8.23;4.40;;;6.60;99.90;;;;;;5010916;28;20153;-48
2023/12/27 04:40:28;;;;;;;11.63;5.25;;;6.60;99.90;;;;;;5017017;28;20069;-51
2023/12/27 04:42:55;;;;;;;8.07;4.82;;;6.50;99.90;;;;;;5012552;28;20054;-49
2023/12/27 04:45:22;;;;;;;10.43;4.10;;;6.60;99.90;;;;;;5013431;28;20173;-47
2023/12/27 04:47:49;;;;;;;6.95;3.95;;;6.50;99.90;;;;;;5035330;28;20488;-53
2023/12/27 04:50:16;;;;;;;7.18;4.50;;;6.50;99.90;;;;;;5014588;28;20038;-48
2023/12/27 04:52:43;;;;;;;11.27;4.72;;;6.50;99.90;;;;;;5013782;28;20676;-47
2023/12/27 04:55:10;;;;;;;11.05;4.50;;;6.40;99.90;;;;;;5015785;28;20067;-47
2023/12/27 04:57:37;;;;;;;7.40;4.85;;;6.40;99.90;;;;;;5013285;28;20150;-48
2023/12/27 05:00:05;;;;;;;9.02;4.40;;;6.30;99.90;;;;;;5014789;28;20233;-51
2023/12/27 05:02:33;;;;;;;10.00;4.55;;;6.20;99.90;;;;;;5014091;28;20038;-48
2023/12/27 05:05:00;;;;;;;10.52;4.93;;;6.20;99.90;;;;;;5013597;28;20391;-46
2023/12/27 05:07:27;;;;;;;8.55;4.30;;;6.10;99.90;;;;;;5010041;28;20120;-51
2023/12/27 05:09:54;;;;;;;9.38;5.20;;;6.00;99.90;;;;;;5012500;28;20068;-47
2023/12/27 05:12:21;;;;;;;7.60;4.72;;;5.90;99.90;;;;;;5012533;28;20045;-47
2023/12/27 05:14:48;;;;;;;8.30;5.32;;;5.90;99.90;;;;;;5008348;28;20088;-49
2023/12/27 05:17:15;;;;;;;13.40;5.15;;;5.90;99.90;;;;;;5015006;28;20140;-51
2023/12/27 05:19:42;;;;;;;10.80;5.38;;;5.80;99.90;;;;;;5018271;28;20115;-53
2023/12/27 05:22:10;;;;;;;10.48;5.15;;;5.80;99.90;;;;;;5014994;28;20056;-51
2023/12/27 05:24:36;;;;;;;9.50;5.30;;;5.90;99.90;;;;;;5015249;28;20084;-50
2023/12/27 05:27:04;;;;;;;7.80;5.05;;;5.90;99.90;;;;;;5013499;28;20041;-48
2023/12/27 05:29:31;;;;;;;10.77;5.18;;;5.90;99.90;;;;;;5015256;28;20056;-50
2023/12/27 05:31:57;;;;;;;10.57;5.10;;;6.00;99.90;;;;;;5018957;28;20042;-46
2023/12/27 05:34:24;;;;;;;10.23;4.95;;;6.00;99.90;;;;;;5020901;28;20095;-51
2023/12/27 05:36:51;;;;;;;10.57;5.28;;;6.10;99.90;;;;;;5016903;28;20061;-48
2023/12/27 05:39:18;;;;;;;10.15;5.25;;;6.20;99.90;;;;;;5011147;28;20129;-49
2023/12/27 05:41:45;;;;;;;9.35;4.93;;;6.30;99.90;;;;;;5015362;28;20045;-53
2023/12/27 05:44:12;;;;;;;9.88;5.63;;;6.30;99.90;;;;;;5016425;28;20049;-49
2023/12/27 05:46:39;;;;;;;9.48;4.72;;;6.30;99.90;;;;;;5014184;28;20121;-50
2023/12/27 05:49:06;;;;;;;7.65;4.13;;;6.30;99.90;;;;;;5015519;28;20049;-48
2023/12/27 05:51:33;;;;;;;8.77;4.50;;;6.40;99.90;;;;;;5013005;28;20037;-51
2023/12/27 05:54:01;;;;;;;8.63;4.55;;;6.40;99.90;;;;;;5016465;28;20053;-49
2023/12/27 05:56:28;;;;;;;8.85;5.28;;;6.50;99.90;;;;;;5013536;28;20575;-49
2023/12/27 05:58:55;;;;;;;8.48;4.70;;;6.60;99.90;;;;;;5013744;28;20049;-52
2023/12/27 06:01:22;;;;;;;9.85;5.03;;;6.60;99.90;;;;;;5013724;28;20133;-51
2023/12/27 06:03:48;;;;;;;9.77;5.07;;;6.70;99.90;;;;;;5009106;28;20050;-52
2023/12/27 06:06:15;;;;;;;7.20;4.00;;;6.70;99.90;;;;;;5013555;28;20057;-50
2023/12/27 06:08:42;;;;;;;10.88;4.45;;;6.70;99.90;;;;;;5016752;28;20111;-49
2023/12/27 06:11:12;;;;;;;8.80;4.32;;;6.70;99.90;;;;;;5001247;28;20086;-48
2023/12/27 06:13:39;;;;;;;8.82;4.13;;;6.80;99.90;;;;;;5006666;28;20056;-50
2023/12/27 06:16:06;;;;;;;10.30;4.90;;;6.80;99.90;;;;;;4996680;28;20050;-50
2023/12/27 06:18:33;;;;;;;9.73;5.13;;;6.80;99.90;;;;;;5005826;28;20542;-50
2023/12/27 06:21:00;;;;;;;11.90;5.50;;;6.80;99.90;;;;;;5008981;28;20041;-47
2023/12/27 06:23:28;;;;;;;12.55;4.97;;;6.80;99.90;;;;;;5010428;28;20042;-51
2023/12/27 06:25:55;;;;;;;9.68;5.15;;;6.90;99.90;;;;;;5011388;28;20048;-49
2023/12/27 06:28:22;;;;;;;11.50;5.47;;;6.90;99.90;;;;;;5012033;28;20284;-49
2023/12/27 06:30:49;;;;;;;8.48;5.03;;;6.90;99.90;;;;;;5015641;28;20072;-52
2023/12/27 06:33:16;;;;;;;9.98;4.45;;;6.90;99.90;;;;;;5008576;28;20456;-48
2023/12/27 06:35:44;;;;;;;12.50;5.57;;;6.90;99.90;;;;;;5019228;28;20087;-47
2023/12/27 06:38:11;;;;;;;10.50;4.88;;;7.00;99.90;;;;;;5007181;28;20056;-49
2023/12/27 06:40:38;;;;;;;7.65;4.07;;;7.00;99.90;;;;;;5016142;28;20614;-47
2023/12/27 06:43:05;;;;;;;7.75;4.38;;;7.00;99.90;;;;;;5014926;28;20527;-49
2023/12/27 06:45:32;;;;;;;9.32;4.13;;;7.00;99.90;;;;;;5015944;28;20048;-47
2023/12/27 06:47:59;;;;;;;8.60;4.88;;;7.00;99.90;;;;;;5012394;28;20103;-48
2023/12/27 06:50:27;;;;;;;8.07;4.70;;;7.00;99.90;;;;;;5016358;28;20042;-45
2023/12/27 06:52:54;;;;;;;9.77;5.00;;;6.90;99.90;;;;;;5007727;28;20064;-48
2023/12/27 06:55:21;;;;;;;8.35;4.00;;;7.00;99.90;;;;;;5016274;28;20053;-50
2023/12/27 06:57:48;;;;;;;8.40;4.22;;;7.00;99.90;;;;;;5017252;28;20152;-49
2023/12/27 07:00:16;;;;;;;7.57;4.70;;;7.00;99.90;;;;;;5014969;28;20052;-51
2023/12/27 07:02:43;;;;;;;11.02;4.82;;;7.00;99.90;;;;;;5013407;28;20052;-49
2023/12/27 07:05:11;;;;;;;9.25;4.00;;;6.90;99.90;;;;;;5010456;28;20531;-48
2023/12/27 07:07:39;;;;;;;9.80;4.15;;;6.90;99.90;;;;;;5016636;28;20069;-47
2023/12/27 07:10:06;;;;;;;8.57;3.97;;;6.90;99.90;;;;;;5007373;28;20617;-47
2023/12/27 07:12:38;;;;;;;10.55;4.47;;;7.00;99.90;;;;;;5010375;28;20464;-49
2023/12/27 07:15:07;;;;;;;11.38;4.45;;;6.90;99.90;;;;;;5007915;28;20870;-46
2023/12/27 07:17:34;;;;;;;8.77;4.47;;;6.90;99.90;;;;;;5011547;28;20069;-52
2023/12/27 07:20:02;;;;;;;7.00;4.18;;;6.80;99.90;;;;;;5008466;28;20053;-48
2023/12/27 07:22:29;;;;;;;9.77;4.68;;;6.70;99.90;;;;;;5010391;28;20049;-47
2023/12/27 07:24:58;;;;;;;8.57;4.63;;;6.70;99.90;;;;;;5006962;28;20450;-48
2023/12/27 07:27:25;;;;;;;10.70;4.95;;;6.60;99.90;;;;;;5017339;28;20053;-53
2023/12/27 07:29:52;;;;;;;11.20;5.53;;;6.60;99.90;;;;;;5018306;28;20046;-52
2023/12/27 07:32:22;;;;;;;12.52;5.30;;;6.50;99.90;;;;;;5015831;28;20042;-49
2023/12/27 07:34:49;;;;;;;9.55;4.93;;;6.50;99.90;;;;;;5017069;28;20523;-48
2023/12/27 07:37:16;;;;;;;12.35;5.25;;;6.50;99.90;;;;;;5010014;28;20048;-47
2023/12/27 07:39:43;;;;;;;9.02;5.32;;;6.60;99.90;;;;;;5016479;28;20049;-51
2023/12/27 07:42:10;;;;;;;13.82;6.68;;;6.60;99.90;;;;;;5016094;28;20461;-49
2023/12/27 07:44:37;;;;;;;14.95;7.13;;;6.60;99.90;;;;;;5020614;28;20137;-51
2023/12/27 07:47:06;;;;;;;12.40;6.38;;;6.60;99.90;;;;;;5015518;28;20117;-50
2023/12/27 07:49:33;;;;;;;14.30;5.85;;;6.60;99.90;;;;;;5021847;28;20065;-50
2023/12/27 07:52:00;;;;;;;8.40;5.50;;;6.60;99.90;;;;;;5021175;28;20053;-56
2023/12/27 07:54:27;;;;;;;11.77;6.47;;;6.60;99.90;;;;;;5025907;28;20034;-51
2023/12/27 07:56:54;;;;;;;10.77;6.25;;;6.70;99.90;;;;;;5030881;28;20747;-50
2023/12/27 07:59:21;;;;;;;10.25;5.47;;;6.70;99.90;;;;;;5025621;28;20077;-49
2023/12/27 08:01:48;;;;;;;10.05;6.35;;;6.70;99.90;;;;;;5012714;28;20124;-49
2023/12/27 08:04:15;;;;;;;11.82;6.53;;;6.70;99.90;;;;;;5013363;28;20038;-46
2023/12/27 08:06:42;;;;;;;8.80;5.43;;;6.80;99.90;;;;;;5009648;28;20465;-48
2023/12/27 08:09:10;;;;;;;10.65;5.97;;;6.80;99.90;;;;;;5015374;28;20053;-47
2023/12/27 08:11:37;;;;;;;8.57;5.30;;;6.80;99.90;;;;;;5015432;28;20102;-56
2023/12/27 08:14:04;;;;;;;9.38;5.65;;;6.80;99.90;;;;;;5017803;28;20128;-54
2023/12/27 08:16:31;;;;;;;11.05;4.32;;;6.90;99.90;;;;;;5015709;28;20052;-49
2023/12/27 08:18:58;;;;;;;11.43;4.57;;;7.00;99.90;;;;;;5015737;28;20049;-53
2023/12/27 08:21:25;;;;;;;10.20;5.03;;;7.00;99.90;;;;;;5006029;28;20146;-48
2023/12/27 08:23:53;;;;;;;11.55;5.78;;;7.10;99.90;;;;;;5015387;28;20088;-50
2023/12/27 08:26:20;;;;;;;9.45;5.00;;;7.20;99.90;;;;;;5012279;28;20052;-49
2023/12/27 08:28:47;;;;;;;8.80;4.68;;;7.30;99.90;;;;;;5019169;28;20038;-49
2023/12/27 08:31:14;;;;;;;12.63;5.25;;;7.50;99.90;;;;;;5011968;28;20524;-50
2023/12/27 08:33:41;;;;;;;9.43;3.97;;;7.60;99.90;;;;;;5010676;28;20514;-46
2023/12/27 08:36:08;;;;;;;16.88;5.63;;;7.60;99.90;;;;;;5016822;28;20476;-47
2023/12/27 08:38:35;;;;;;;10.57;4.75;;;7.80;99.90;;;;;;5012881;28;20033;-47
2023/12/27 08:41:02;;;;;;;11.98;5.25;;;7.80;99.90;;;;;;5015550;28;20461;-49
2023/12/27 08:43:30;;;;;;;9.98;5.00;;;7.90;99.90;;;;;;5015742;28;20391;-52
2023/12/27 08:45:57;;;;;;;7.35;4.35;;;8.00;99.90;;;;;;5010496;28;20505;-47
2023/12/27 08:48:24;;;;;;;9.75;5.13;;;8.10;99.90;;;;;;5016591;28;20097;-50
2023/12/27 08:50:52;;;;;;;8.48;4.75;;;8.20;99.90;;;;;;5013784;28;20053;-49
2023/12/27 08:53:19;;;;;;;11.68;5.38;;;8.30;99.90;;;;;;5018098;28;20069;-46
2023/12/27 08:55:46;;;;;;;8.00;5.25;;;8.40;99.90;;;;;;5012922;28;20136;-47
2023/12/27 08:58:13;;;;;;;12.25;5.63;;;8.50;99.90;;;;;;5015208;28;20130;-44
2023/12/27 09:00:40;;;;;;;7.75;4.60;;;8.50;99.90;;;;;;5014285;28;20053;-46
2023/12/27 09:03:07;;;;;;;8.43;4.47;;;8.50;99.90;;;;;;5016255;28;20506;-50
2023/12/27 09:05:35;;;;;;;7.05;3.67;;;8.60;99.90;;;;;;5010298;28;20049;-50
2023/12/27 09:08:02;;;;;;;7.90;4.10;;;8.70;99.90;;;;;;5012558;28;20075;-48
2023/12/27 09:10:28;;;;;;;9.07;4.00;;;8.80;99.90;;;;;;5012162;28;20034;-51
2023/12/27 09:12:55;;;;;;;9.68;4.45;;;8.80;99.90;;;;;;5010917;28;20139;-47
2023/12/27 09:15:22;;;;;;;8.43;3.78;;;8.90;99.90;;;;;;5008848;28;20104;-46
2023/12/27 09:17:53;;;;;;;9.98;4.18;;;9.00;99.90;;;;;;5009996;28;20397;-52
2023/12/27 09:20:20;;;;;;;7.03;3.50;;;9.10;99.90;;;;;;5012325;28;20120;-54
2023/12/27 09:22:47;;;;;;;7.82;3.55;;;9.10;99.90;;;;;;5012730;28;20052;-50
2023/12/27 09:25:14;;;;;;;9.55;3.80;;;9.20;99.90;;;;;;5011762;28;20411;-47
2023/12/27 09:27:41;;;;;;;7.03;3.45;;;9.30;99.90;;;;;;5011881;28;20124;-52
2023/12/27 09:30:08;;;;;;;7.97;3.53;;;9.30;99.90;;;;;;5009749;28;20034;-48
2023/12/27 09:32:36;;;;;;;5.22;3.40;;;9.40;99.90;;;;;;5005742;28;20107;-49
2023/12/27 09:35:03;;;;;;;7.28;3.70;;;9.50;99.90;;;;;;5009106;28;20459;-48
2023/12/27 09:37:30;;;;;;;9.35;3.72;;;9.60;99.90;;;;;;5008139;28;20133;-49
2023/12/27 09:39:57;;;;;;;10.00;4.45;;;9.80;99.90;;;;;;5011880;28;20107;-52
2023/12/27 09:42:25;;;;;;;7.03;3.60;;;9.80;99.90;;;;;;5005381;28;20419;-50
2023/12/27 09:44:54;;;;;;;8.32;3.60;;;9.90;99.90;;;;;;5006081;28;20375;-51
2023/12/27 09:47:22;;;;;;;7.57;3.30;;;9.90;99.90;;;;;;5009019;28;20426;-51
2023/12/27 09:49:52;;;;;;;9.05;3.70;;;9.90;99.90;;;;;;5007587;28;20152;-47
2023/12/27 09:52:20;;;;;;;8.25;3.65;;;10.00;99.90;;;;;;5008792;28;20437;-50
2023/12/27 09:54:47;;;;;;;7.18;3.55;;;10.00;99.90;;;;;;5008159;28;20132;-52
2023/12/27 09:57:14;;;;;;;13.63;4.03;;;10.10;99.90;;;;;;5006175;28;20096;-48
2023/12/27 09:59:46;;;;;;;6.60;3.40;;;10.20;99.90;;;;;;5008823;28;20049;-47
2023/12/27 10:02:18;;;;;;;10.88;5.28;;;10.40;99.90;;;;;;5006404;28;20526;-51
2023/12/27 10:05:09;;;;;;;10.35;3.60;;;10.60;99.90;;;;;;5009663;28;20037;-50
2023/12/27 10:07:39;;;;;;;6.57;3.45;;;10.80;99.90;;;;;;5007289;28;20034;-51
2023/12/27 10:10:08;;;;;;;8.15;3.83;;;10.80;99.90;;;;;;5005413;28;20583;-47
2023/12/27 10:12:51;;;;;;;10.82;4.57;;;10.80;99.90;;;;;;5008368;28;20506;-48
2023/12/27 10:15:18;;;;;;;8.85;4.78;;;10.90;99.90;;;;;;5005743;28;20068;-49
2023/12/27 10:17:45;;;;;;;10.82;5.60;;;11.10;99.90;;;;;;5011731;28;20111;-50
2023/12/27 10:20:31;;;;;;;12.73;5.65;;;11.20;99.90;;;;;;5010628;28;20488;-51
2023/12/27 10:23:00;;;;;;;11.73;4.85;;;11.30;99.90;;;;;;5016267;28;20584;-47
2023/12/27 10:25:28;;;;;;;9.38;4.90;;;11.40;99.90;;;;;;5010566;28;20034;-50
2023/12/27 10:27:56;;;;;;;14.85;6.78;;;11.50;99.90;;;;;;5014864;28;20046;-48
2023/12/27 10:30:24;;;;;;;10.60;5.43;;;11.50;99.90;;;;;;5014287;28;20155;-46
2023/12/27 10:33:02;;;;;;;7.22;4.32;;;11.50;99.90;;;;;;5014521;28;20075;-50
2023/12/27 10:35:35;;;;;;;9.70;3.88;;;11.60;99.90;;;;;;5005031;28;20038;-48
2023/12/27 10:38:04;;;;;;;9.57;3.67;;;11.50;99.90;;;;;;5008396;28;20582;-46
2023/12/27 10:40:36;;;;;;;10.50;3.47;;;11.80;99.90;;;;;;5016044;28;20130;-51
2023/12/27 10:43:03;;;;;;;8.63;4.00;;;11.90;99.90;;;;;;5010175;28;20034;-49
2023/12/27 10:45:30;;;;;;;7.90;4.40;;;12.10;99.90;;;;;;5010095;28;20038;-47
2023/12/27 10:48:04;;;;;;;6.18;3.85;;;12.50;99.90;;;;;;5017746;28;20467;-50
2023/12/27 10:50:34;;;;;;;6.47;3.75;;;12.70;99.90;;;;;;5012476;28;20041;-49
2023/12/27 10:53:03;;;;;;;7.05;3.78;;;13.00;99.90;;;;;;5014746;28;20052;-49
2023/12/27 10:55:31;;;;;;;5.78;3.63;;;13.20;99.90;;;;;;5013602;28;20045;-46
2023/12/27 10:58:00;;;;;;;5.93;3.70;;;13.30;99.90;;;;;;5014660;28;20078;-47
2023/12/27 11:00:28;;;;;;;6.47;3.35;;;13.40;99.90;;;;;;4996052;28;20100;-49
2023/12/27 11:02:57;;;;;;;6.10;2.60;;;13.50;99.90;;;;;;5017940;28;20049;-54
2023/12/27 11:05:29;;;;;;;8.20;5.15;;;13.60;99.90;;;;;;5016335;28;20046;-50
2023/12/27 11:07:57;;;;;;;8.27;3.30;;;13.70;99.90;;;;;;5016638;28;20073;-49
2023/12/27 11:10:28;;;;;;;7.22;3.50;;;13.60;99.90;;;;;;5010201;28;20049;-51
2023/12/27 11:12:58;;;;;;;9.05;3.85;;;13.80;99.90;;;;;;5015392;28;20095;-48
2023/12/27 11:15:26;;;;;;;7.15;3.55;;;14.00;99.90;;;;;;5014366;28;20042;-53
2023/12/27 11:18:00;;;;;;;4.28;3.00;;;14.30;99.90;;;;;;5019318;28;20069;-49
2023/12/27 11:20:29;;;;;;;4.97;3.00;;;14.60;99.90;;;;;;5010286;28;20121;-51
2023/12/27 11:22:57;;;;;;;3.65;2.42;;;14.70;99.90;;;;;;5014494;28;20038;-51
2023/12/27 11:25:24;;;;;;;4.88;3.00;;;14.80;99.90;;;;;;5011037;28;19921;-48
2023/12/27 11:27:52;;;;;;;5.93;3.50;;;15.00;99.90;;;;;;5016733;28;20507;-49
2023/12/27 11:30:21;;;;;;;4.40;3.00;;;15.10;99.90;;;;;;5015186;28;20050;-48
2023/12/27 11:32:49;;;;;;;5.20;3.40;;;15.00;99.90;;;;;;5015378;28;20075;-48
2023/12/27 11:35:30;;;;;;;5.60;3.38;;;14.80;99.90;;;;;;5013049;28;20049;-53
2023/12/27 11:38:19;;;;;;;5.43;3.50;;;14.70;99.90;;;;;;5016119;28;20050;-52
2023/12/27 11:40:47;;;;;;;6.15;3.67;;;14.50;99.90;;;;;;5017683;28;20128;-51
2023/12/27 11:43:21;;;;;;;6.47;4.10;;;14.40;99.90;;;;;;5016804;28;20131;-57
2023/12/27 11:45:58;;;;;;;8.25;3.83;;;14.20;99.90;;;;;;5009271;28;20502;-51
2023/12/27 11:48:35;;;;;;;7.55;4.03;;;14.00;99.90;;;;;;5016986;28;20053;-54
2023/12/27 11:51:32;;;;;;;9.07;4.63;;;13.50;99.90;;;;;;5012716;28;20126;-51
2023/12/27 11:54:01;;;;;;;5.35;3.83;;;13.20;99.90;;;;;;5017422;28;20061;-51
2023/12/27 11:56:32;;;;;;;7.72;3.65;;;12.70;99.90;;;;;;5010014;28;20058;-51
2023/12/27 11:59:08;;;;;;;6.78;3.45;;;12.20;99.90;;;;;;5014279;28;20048;-51
2023/12/27 12:01:39;;;;;;;5.83;3.43;;;12.10;99.90;;;;;;5014810;28;20041;-52
2023/12/27 12:04:25;;;;;;;6.65;3.50;;;12.00;99.90;;;;;;5011165;28;20554;-48
2023/12/27 12:06:55;;;;;;;6.28;3.95;;;11.70;99.90;;;;;;5014007;28;20158;-46
2023/12/27 12:09:36;;;;;;;8.18;3.25;;;11.60;99.90;;;;;;5016602;28;20418;-46
2023/12/27 12:12:25;;;;;;;4.70;2.90;;;11.40;99.90;;;;;;5003667;28;20414;-52
2023/12/27 12:14:53;;;;;;;5.38;3.25;;;11.20;99.90;;;;;;5019184;28;20049;-50
2023/12/27 12:17:24;;;;;;;4.70;2.95;;;11.10;99.90;;;;;;5016261;28;20061;-51
2023/12/27 12:19:51;;;;;;;5.97;3.10;;;11.20;99.90;;;;;;5011995;28;20130;-49
2023/12/27 12:22:19;;;;;;;6.28;3.00;;;11.10;99.90;;;;;;5017062;28;20469;-53
2023/12/27 12:24:46;;;;;;;4.07;2.45;;;11.00;99.90;;;;;;5014813;28;20049;-49
2023/12/27 12:27:14;;;;;;;5.82;3.13;;;10.90;99.90;;;;;;5016317;28;20049;-50
2023/12/27 12:29:43;;;;;;;5.95;3.20;;;11.00;99.90;;;;;;5016330;28;20267;-51
2023/12/27 12:32:13;;;;;;;8.32;2.88;;;11.10;99.90;;;;;;5016279;28;20057;-49
2023/12/27 12:34:42;;;;;;;;;;;11.20;99.90;;;;;;5016801;28;20085;-46
2023/12/27 12:37:10;;;;;;;8.50;3.33;;;11.20;99.90;;;;;;5017732;28;19921;-52
2023/12/27 12:39:37;;;;;;;6.90;3.08;;;11.20;99.90;;;;;;5013672;28;20045;-51
2023/12/27 12:42:04;;;;;;;6.32;3.20;;;11.10;99.90;;;;;;5016243;28;20045;-49
2023/12/27 12:44:34;;;;;;;8.13;3.90;;;11.10;99.90;;;;;;5017219;28;20461;-52
2023/12/27 12:47:02;;;;;;;7.55;3.42;;;11.10;99.90;;;;;;5017588;28;20129;-51
2023/12/27 12:49:30;;;;;;;7.28;3.80;;;11.10;99.90;;;;;;5017431;28;20045;-53
2023/12/27 12:52:06;;;;;;;9.57;3.72;;;11.10;99.90;;;;;;5021299;28;20045;-51
2023/12/27 12:54:34;;;;;;;6.78;3.97;;;11.00;99.90;;;;;;5020577;28;20053;-52
2023/12/27 12:57:03;;;;;;;8.98;3.50;;;10.90;99.90;;;;;;5013211;28;20127;-52